Time;durP1;ratioP1;P1;durP2;ratioP2;P2;SDS_P1;SDS_P2;PMS_P1;PMS_P2;Temp;Humidity;BMP_temperature;BMP_pressure;BME280_temperature;BME280_humidity;BME280_pressure;Samples;Min_cycle;Max_cycle;Signal;HPM_P1;HPM_P2
2021/11/10 00:01:28;;;;;;;5.72;3.40;;;;;;;0.24;55.96;101403.41;1734486;81;21071;-35
2021/11/10 00:03:54;;;;;;;6.20;3.60;;;;;;;0.27;55.97;101403.47;1731842;81;21048;-36
2021/11/10 00:06:21;;;;;;;5.58;3.50;;;;;;;0.25;56.04;101403.70;1731789;81;21133;-35
2021/11/10 00:08:47;;;;;;;6.08;3.05;;;;;;;0.26;56.21;101408.00;1742460;81;21048;-35
2021/11/10 00:11:14;;;;;;;5.85;3.45;;;;;;;0.30;56.13;101407.79;1732475;81;21585;-35
2021/11/10 00:13:40;;;;;;;5.12;3.42;;;;;;;0.33;56.06;101416.66;1731567;81;21035;-35
2021/11/10 00:16:07;;;;;;;7.35;3.90;;;;;;;0.38;55.88;101412.75;1750172;81;21609;-36
2021/11/10 00:18:33;;;;;;;6.70;3.65;;;;;;;0.40;55.86;101417.82;1732414;81;21045;-35
2021/11/10 00:21:01;;;;;;;8.48;4.83;;;;;;;0.42;55.78;101425.08;1731656;81;21003;-36
2021/11/10 00:23:28;;;;;;;6.62;4.30;;;;;;;0.41;55.75;101422.92;1731774;81;21522;-35
2021/11/10 00:25:55;;;;;;;10.32;4.60;;;;;;;0.41;55.70;101414.92;1736883;81;21096;-36
2021/11/10 00:28:21;;;;;;;9.43;4.70;;;;;;;0.41;55.70;101420.26;1737092;81;21506;-36
2021/11/10 00:30:48;;;;;;;6.90;4.55;;;;;;;0.43;55.66;101427.51;1737203;81;21092;-35
2021/11/10 00:33:14;;;;;;;7.62;4.50;;;;;;;0.44;55.56;101426.95;1735324;81;21548;-35
2021/11/10 00:35:41;;;;;;;5.15;3.52;;;;;;;0.43;55.51;101427.51;1736388;81;21074;-35
2021/11/10 00:38:08;;;;;;;7.17;4.40;;;;;;;0.44;55.55;101431.77;1735293;81;21550;-35
2021/11/10 00:40:37;;;;;;;6.25;3.67;;;;;;;0.43;55.54;101427.51;1735222;81;21060;-35
2021/11/10 00:43:03;;;;;;;7.42;3.25;;;;;;;0.46;55.59;101425.39;1735082;81;21092;-35
2021/11/10 00:45:30;;;;;;;6.17;3.80;;;;;;;0.43;55.58;101435.52;1734955;82;20997;-35
2021/11/10 00:47:56;;;;;;;6.58;4.03;;;;;;;0.42;55.66;101434.41;1734975;81;21542;-35
2021/11/10 00:50:24;;;;;;;7.03;4.03;;;;;;;0.41;55.69;101436.79;1735902;81;20992;-35
2021/11/10 00:52:51;;;;;;;9.23;4.00;;;;;;;0.36;55.68;101437.52;1736916;81;21687;-35
2021/11/10 00:55:18;;;;;;;5.20;3.25;;;;;;;0.32;55.90;101443.05;1735344;81;22308;-35
2021/11/10 00:57:44;;;;;;;7.08;3.70;;;;;;;0.37;55.87;101451.14;1741264;81;20936;-35
2021/11/10 01:00:13;;;;;;;6.20;3.50;;;;;;;0.37;55.84;101449.00;1735410;81;21522;-35
2021/11/10 01:02:42;;;;;;;;;;;;;;;0.40;55.85;101430.64;1756245;81;21529;-35
2021/11/10 01:05:09;;;;;;;6.22;3.52;;;;;;;0.31;55.93;101425.94;1743805;80;20226;-35
2021/11/10 01:07:37;;;;;;;7.37;3.50;;;;;;;0.11;56.27;101431.73;1755819;81;23120;-35
2021/11/10 01:10:05;;;;;;;7.53;3.50;;;;;;;0.07;56.66;101437.78;1756892;80;21035;-35
2021/11/10 01:12:32;;;;;;;5.25;3.42;;;;;;;0.10;56.87;101438.66;1742525;81;21050;-35
2021/11/10 01:15:01;;;;;;;5.45;3.58;;;;;;;0.14;56.94;101434.45;1756331;81;21513;-35
2021/11/10 01:17:29;;;;;;;6.00;3.67;;;;;;;0.19;56.91;101444.70;1742739;81;21530;-35
2021/11/10 01:19:56;;;;;;;6.70;3.85;;;;;;;0.23;56.96;101463.17;1752012;81;21138;-35
2021/11/10 01:22:23;;;;;;;7.65;4.25;;;;;;;0.30;56.90;101463.81;1755647;81;20956;-36
2021/11/10 01:24:52;;;;;;;8.90;4.47;;;;;;;0.34;56.80;101474.28;1740768;81;20990;-36
2021/11/10 01:27:19;;;;;;;9.10;5.20;;;;;;;0.41;56.73;101480.81;1742841;81;21002;-36
2021/11/10 01:29:47;;;;;;;9.65;5.47;;;;;;;0.46;56.69;101485.43;1735531;81;21047;-35
2021/11/10 01:32:14;;;;;;;9.93;5.67;;;;;;;0.51;56.47;101478.33;1723651;81;21797;-36
2021/11/10 01:34:41;;;;;;;10.28;5.47;;;;;;;0.48;56.36;101473.48;1732745;81;20992;-35
2021/11/10 01:37:10;;;;;;;8.83;4.10;;;;;;;0.43;56.49;101466.20;1757585;81;20984;-34
2021/11/10 01:39:39;;;;;;;9.13;5.42;;;;;;;0.47;56.61;101432.34;1778126;80;20948;-36
2021/11/10 01:42:08;;;;;;;8.13;4.80;;;;;;;0.42;56.45;101445.89;1784704;80;21557;-35
2021/11/10 01:44:38;;;;;;;11.97;6.10;;;;;;;0.40;56.75;101441.84;1730238;82;21091;-35
2021/11/10 01:47:09;;;;;;;10.20;5.53;;;;;;;0.44;56.75;101442.45;1758418;80;20924;-35
2021/11/10 01:49:41;;;;;;;11.00;5.40;;;;;;;0.49;56.78;101439.05;1734406;81;21071;-35
2021/11/10 01:52:09;;;;;;;8.65;5.33;;;;;;;0.57;56.58;101449.87;1789065;80;21070;-35
2021/11/10 01:54:39;;;;;;;10.65;5.05;;;;;;;0.62;56.49;101436.08;1762171;81;21019;-35
2021/11/10 01:57:08;;;;;;;8.45;4.55;;;;;;;0.70;56.32;101438.34;1788963;80;21101;-35
2021/11/10 01:59:45;;;;;;;9.10;4.80;;;;;;;0.71;56.12;101444.48;1754252;81;21590;-36
2021/11/10 02:02:21;;;;;;;7.15;4.30;;;;;;;0.72;56.02;101440.77;1749851;80;21687;-36
2021/11/10 02:04:50;;;;;;;10.08;5.50;;;;;;;0.71;55.90;101429.80;1754422;81;20945;-35
2021/11/10 02:07:18;;;;;;;7.53;3.95;;;;;;;0.69;55.82;101430.56;1759954;80;21000;-35
2021/11/10 02:09:47;;;;;;;7.55;4.33;;;;;;;0.68;55.79;101436.95;1758470;80;21134;-36
2021/11/10 02:12:13;;;;;;;7.87;4.65;;;;;;;0.72;55.61;101448.78;1731889;82;20991;-36
2021/11/10 02:14:42;;;;;;;8.07;3.87;;;;;;;0.71;55.53;101449.83;1766565;80;21074;-36
2021/11/10 02:17:15;;;;;;;10.00;4.62;;;;;;;0.69;55.49;101455.40;1771127;80;21074;-35
2021/11/10 02:19:44;;;;;;;10.45;5.28;;;;;;;0.66;55.51;101449.75;1736767;81;21122;-35
2021/11/10 02:22:14;;;;;;;8.23;4.87;;;;;;;0.63;55.62;101444.34;1747018;81;21133;-35
2021/11/10 02:24:43;;;;;;;9.63;5.37;;;;;;;0.61;55.59;101456.33;1732748;81;21008;-36
2021/11/10 02:27:19;;;;;;;8.83;5.15;;;;;;;0.56;55.75;101462.40;1750029;81;21000;-35
2021/11/10 02:29:46;;;;;;;8.25;5.12;;;;;;;0.56;55.83;101469.59;1748478;81;20969;-35
2021/11/10 02:32:14;;;;;;;7.72;5.10;;;;;;;0.54;55.76;101482.36;1708362;82;21562;-35
2021/11/10 02:34:43;;;;;;;9.43;4.97;;;;;;;0.52;55.86;101477.80;1730281;82;21934;-35
2021/11/10 02:37:13;;;;;;;9.18;4.90;;;;;;;0.51;55.91;101482.33;1739108;81;20988;-35
2021/11/10 02:39:41;;;;;;;8.03;4.72;;;;;;;0.48;55.93;101482.82;1750042;80;21510;-36
2021/11/10 02:42:08;;;;;;;7.83;5.03;;;;;;;0.43;56.00;101480.87;1737412;81;21072;-35
2021/11/10 02:44:35;;;;;;;7.20;4.47;;;;;;;0.37;56.07;101474.34;1753785;81;21043;-35
2021/11/10 02:47:01;;;;;;;11.57;4.42;;;;;;;0.30;56.08;101481.16;1747108;81;21145;-35
2021/11/10 02:49:29;;;;;;;6.95;4.40;;;;;;;0.17;56.37;101488.13;1752975;81;20988;-35
2021/11/10 02:52:00;;;;;;;6.80;4.17;;;;;;;0.14;56.49;101501.13;1751815;81;21056;-35
2021/11/10 02:54:30;;;;;;;7.12;4.20;;;;;;;0.12;56.60;101493.88;1746138;81;21063;-35
2021/11/10 02:56:58;;;;;;;7.90;4.58;;;;;;;0.14;56.63;101504.61;1761532;81;21107;-35
2021/11/10 02:59:25;;;;;;;7.67;4.40;;;;;;;0.11;56.63;101502.41;1759343;81;21110;-36
2021/11/10 03:01:53;;;;;;;7.72;4.90;;;;;;;-0.02;56.70;101493.36;1759324;81;21943;-36
2021/11/10 03:04:25;;;;;;;9.53;5.30;;;;;;;-0.13;56.96;101487.53;1730617;81;21107;-36
2021/11/10 03:06:53;;;;;;;8.05;4.65;;;;;;;-0.14;57.22;101488.57;1729911;81;20925;-36
2021/11/10 03:09:25;;;;;;;7.20;4.72;;;;;;;-0.11;57.27;101489.45;1731402;81;21772;-35
2021/11/10 03:11:58;;;;;;;9.23;5.50;;;;;;;-0.11;57.54;101496.11;1730549;81;21863;-35
2021/11/10 03:14:26;;;;;;;12.58;6.60;;;;;;;-0.06;57.68;101500.22;1744148;81;21031;-35
2021/11/10 03:16:54;;;;;;;9.05;6.05;;;;;;;-0.04;57.53;101492.77;1761718;81;21016;-35
2021/11/10 03:19:24;;;;;;;11.00;6.45;;;;;;;-0.06;57.51;101496.22;1739674;81;21036;-35
2021/11/10 03:21:51;;;;;;;11.43;6.40;;;;;;;-0.04;57.57;101492.77;1731820;81;21075;-35
2021/11/10 03:24:19;;;;;;;11.10;6.40;;;;;;;0.03;57.35;101497.98;1737495;81;21764;-35
2021/11/10 03:26:46;;;;;;;11.53;7.15;;;;;;;0.03;57.28;101485.45;1761808;81;20928;-35
2021/11/10 03:29:14;;;;;;;11.50;6.83;;;;;;;0.09;57.12;101489.84;1741733;81;21597;-35
2021/11/10 03:31:42;;;;;;;10.63;6.45;;;;;;;0.14;56.96;101487.80;1738438;81;21110;-35
2021/11/10 03:34:12;;;;;;;11.70;6.87;;;;;;;0.18;56.83;101474.27;1737972;81;21047;-35
2021/11/10 03:36:39;;;;;;;12.85;6.95;;;;;;;0.21;56.74;101471.92;1755494;81;21522;-35
2021/11/10 03:39:12;;;;;;;10.85;6.97;;;;;;;0.24;56.58;101483.44;1762262;81;21005;-35
2021/11/10 03:43:55;;;;;;;9.65;6.50;;;;;;;0.32;56.38;101483.07;1805224;78;22653;-35
2021/11/10 03:46:23;;;;;;;12.75;6.67;;;;;;;0.13;56.59;101488.32;1814161;78;20992;-35
2021/11/10 03:48:51;;;;;;;12.95;6.90;;;;;;;0.03;56.67;101486.79;1819205;78;21503;-35
2021/11/10 03:51:17;;;;;;;11.78;7.12;;;;;;;-0.08;56.89;101487.63;1821851;78;20945;-38
2021/11/10 03:53:45;;;;;;;10.90;7.00;;;;;;;-0.20;57.23;101485.02;1794718;78;20943;-35
2021/11/10 03:56:12;;;;;;;12.93;7.37;;;;;;;-0.19;57.56;101485.80;1807447;79;21073;-35
2021/11/10 03:58:40;;;;;;;14.40;7.58;;;;;;;-0.13;57.66;101491.01;1812546;79;20961;-35
2021/11/10 04:01:07;;;;;;;12.68;7.80;;;;;;;-0.07;57.77;101482.59;1816180;79;21856;-36
2021/11/10 04:03:35;;;;;;;12.82;7.60;;;;;;;0.03;57.61;101481.45;1807839;79;20956;-36
2021/11/10 04:06:02;;;;;;;14.80;8.18;;;;;;;0.10;57.47;101496.78;1816323;79;21621;-35
2021/11/10 04:08:31;;;;;;;15.85;9.23;;;;;;;0.19;57.18;101495.38;1815859;79;21009;-37
2021/11/10 04:11:01;;;;;;;15.13;9.20;;;;;;;0.23;57.04;101497.84;1811161;79;21009;-35
2021/11/10 04:13:30;;;;;;;17.82;8.75;;;;;;;0.31;56.76;101496.12;1745794;81;21868;-35
2021/11/10 04:15:58;;;;;;;10.00;6.37;;;;;;;0.36;56.60;101498.88;1732023;82;20981;-35
2021/11/10 04:18:27;;;;;;;17.00;8.63;;;;;;;0.39;56.43;101503.72;1733469;80;21037;-36
2021/11/10 04:20:54;;;;;;;14.35;8.35;;;;;;;0.39;56.31;101501.05;1749490;82;20994;-36
2021/11/10 04:23:23;;;;;;;18.42;9.90;;;;;;;0.37;56.15;101503.17;1748558;82;21015;-35
2021/11/10 04:25:49;;;;;;;15.80;9.70;;;;;;;0.26;56.04;101508.55;1780281;80;21075;-35
2021/11/10 04:28:16;;;;;;;19.07;10.43;;;;;;;0.14;56.26;101505.95;1778256;80;21011;-36
2021/11/10 04:30:44;;;;;;;21.80;11.55;;;;;;;0.07;56.39;101508.45;1779681;80;20969;-35
2021/11/10 04:33:10;;;;;;;21.48;11.78;;;;;;;-0.02;56.70;101504.02;1750464;80;21524;-35
2021/11/10 04:35:38;;;;;;;22.17;12.25;;;;;;;-0.12;57.07;101501.97;1719534;83;21013;-36
2021/11/10 04:38:06;;;;;;;24.20;13.00;;;;;;;-0.13;57.35;101500.34;1754807;80;21780;-35
2021/11/10 04:40:33;;;;;;;23.35;12.45;;;;;;;-0.07;57.35;101495.92;1723512;82;20997;-35
2021/11/10 04:43:00;;;;;;;20.65;12.70;;;;;;;-0.11;57.44;101487.59;1726144;82;21594;-35
2021/11/10 04:45:37;;;;;;;22.00;12.23;;;;;;;-0.08;57.49;101485.78;1721397;82;21120;-35
2021/11/10 04:47:59;;;;;;;23.65;12.18;;;;;;;-0.04;57.30;101487.44;1756029;80;21059;-34
2021/11/10 04:50:26;;;;;;;21.23;12.13;;;;;;;-0.03;57.25;101483.73;1761764;80;21113;-35
2021/11/10 04:52:53;;;;;;;22.48;12.18;;;;;;;0.00;57.30;101473.95;1799317;79;20956;-35
2021/11/10 04:55:20;;;;;;;19.80;11.57;;;;;;;0.00;57.22;101468.06;1784226;79;21527;-35
2021/11/10 04:57:47;;;;;;;20.50;11.78;;;;;;;0.02;57.04;101466.50;1800315;79;21001;-35
2021/11/10 05:00:15;;;;;;;19.70;11.93;;;;;;;0.03;57.06;101468.13;1813231;79;21033;-35
2021/11/10 05:02:43;;;;;;;18.50;12.13;;;;;;;0.06;56.91;101463.64;1785733;78;21735;-35
2021/11/10 05:05:12;;;;;;;21.97;11.68;;;;;;;0.05;56.51;101476.67;1802079;78;20993;-35
2021/11/10 05:07:40;;;;;;;19.87;11.70;;;;;;;0.04;56.47;101480.42;1807232;78;20933;-35
2021/11/10 05:10:08;;;;;;;20.12;10.78;;;;;;;0.03;56.46;101492.64;1745330;82;21044;-35
2021/11/10 05:12:35;;;;;;;22.98;12.95;;;;;;;0.03;56.44;101504.13;1783181;79;21535;-35
2021/11/10 05:15:01;;;;;;;19.87;11.57;;;;;;;0.05;56.64;101503.34;1783536;79;21486;-35
2021/11/10 05:17:28;;;;;;;18.10;11.15;;;;;;;0.09;56.83;101504.52;1790071;78;21024;-35
2021/11/10 05:19:55;;;;;;;22.73;12.45;;;;;;;0.09;56.87;101504.52;1794093;78;20931;-35
2021/11/10 05:22:22;;;;;;;21.07;11.53;;;;;;;0.11;56.88;101511.73;1793561;78;20974;-35
2021/11/10 05:24:48;;;;;;;21.85;12.25;;;;;;;0.12;56.88;101517.36;1791683;78;21024;-36
2021/11/10 05:27:15;;;;;;;20.75;11.20;;;;;;;0.13;56.69;101530.18;1814526;78;21960;-35
2021/11/10 05:29:42;;;;;;;18.85;10.75;;;;;;;0.09;56.86;101525.84;1791421;78;21009;-35
2021/11/10 05:32:09;;;;;;;16.07;10.50;;;;;;;0.02;57.13;101527.83;1758389;81;21089;-35
2021/11/10 05:34:36;;;;;;;17.15;10.90;;;;;;;-0.11;57.34;101537.44;1788140;78;21030;-35
2021/11/10 05:37:03;;;;;;;28.17;16.57;;;;;;;-0.22;57.57;101540.92;1788882;79;21060;-35
2021/11/10 05:39:30;;;;;;;37.83;20.72;;;;;;;-0.29;57.53;101540.27;1802049;79;21166;-36
2021/11/10 05:41:58;;;;;;;29.70;14.70;;;;;;;-0.30;57.48;101547.44;1810188;79;21040;-36
2021/11/10 05:44:24;;;;;;;21.35;12.65;;;;;;;-0.29;57.45;101548.25;1795025;79;21492;-35
2021/11/10 05:46:51;;;;;;;25.55;13.50;;;;;;;-0.30;57.34;101532.78;1802514;78;20918;-35
2021/11/10 05:49:17;;;;;;;25.50;14.78;;;;;;;-0.32;57.42;101540.70;1790091;79;21053;-35
2021/11/10 05:51:44;;;;;;;29.98;17.73;;;;;;;-0.32;57.45;101534.86;1791367;79;21097;-35
2021/11/10 05:54:10;;;;;;;22.00;14.20;;;;;;;-0.39;57.56;101539.52;1804416;79;21009;-35
2021/11/10 05:56:39;;;;;;;24.23;12.10;;;;;;;-0.46;57.71;101542.30;1775582;79;20973;-35
2021/11/10 05:59:07;;;;;;;21.40;12.30;;;;;;;-0.54;58.06;101546.66;1773858;79;21001;-35
2021/11/10 06:01:34;;;;;;;18.23;10.43;;;;;;;-0.57;58.31;101544.44;1767324;80;21041;-36
2021/11/10 06:04:01;;;;;;;21.68;12.23;;;;;;;-0.62;58.45;101541.66;1774803;79;21892;-36
2021/11/10 06:06:28;;;;;;;23.27;13.18;;;;;;;-0.67;58.79;101546.87;1776798;79;21033;-36
2021/11/10 06:08:55;;;;;;;22.60;13.48;;;;;;;-0.74;59.18;101545.37;1780366;79;21056;-36
2021/11/10 06:11:22;;;;;;;21.80;13.05;;;;;;;-0.79;59.37;101537.27;1770527;79;20946;-36
2021/11/10 06:13:48;;;;;;;21.60;13.15;;;;;;;-0.84;59.79;101527.31;1779552;79;21030;-36
2021/11/10 06:16:16;;;;;;;134.20;67.25;;;;;;;-0.76;59.93;101534.94;1787408;79;21130;-35
2021/11/10 06:18:42;;;;;;;34.65;19.60;;;;;;;-0.67;59.99;101536.22;1775447;79;20993;-35
2021/11/10 06:21:09;;;;;;;21.97;12.93;;;;;;;-0.55;60.00;101546.88;1782658;79;21110;-35
2021/11/10 06:23:36;;;;;;;20.10;11.80;;;;;;;-0.40;60.03;101543.74;1780832;79;21294;-35
2021/11/10 06:26:03;;;;;;;21.48;12.37;;;;;;;-0.28;59.49;101541.86;1787525;79;21000;-38
2021/11/10 06:28:30;;;;;;;19.07;11.18;;;;;;;-0.25;59.41;101541.41;1804251;79;21118;-38
2021/11/10 06:30:57;;;;;;;18.87;11.33;;;;;;;-0.21;59.27;101543.89;1796351;79;21011;-36
2021/11/10 06:33:25;;;;;;;18.75;11.63;;;;;;;-0.22;59.52;101544.92;1782145;79;20996;-36
2021/11/10 06:35:51;;;;;;;18.77;12.07;;;;;;;-0.18;59.90;101549.55;1779158;79;21515;-36
2021/11/10 06:38:18;;;;;;;17.70;11.33;;;;;;;-0.07;60.09;101545.25;1791603;79;21052;-36
2021/11/10 06:40:44;;;;;;;17.25;11.18;;;;;;;0.05;59.95;101551.34;1801968;79;21136;-37
2021/11/10 06:43:11;;;;;;;22.27;13.72;;;;;;;0.22;59.88;101544.23;1781867;79;21505;-35
2021/11/10 06:45:37;;;;;;;25.65;18.05;;;;;;;0.40;59.59;101542.70;1742277;80;21029;-36
2021/11/10 06:48:04;;;;;;;23.00;13.88;;;;;;;0.55;59.56;101540.02;1737790;79;21046;-35
2021/11/10 06:50:30;;;;;;;23.92;14.75;;;;;;;0.65;59.33;101538.35;1760143;79;21045;-36
2021/11/10 06:52:57;;;;;;;23.62;13.83;;;;;;;0.72;59.22;101525.67;1745565;81;21142;-36
2021/11/10 06:55:24;;;;;;;21.77;14.10;;;;;;;0.81;59.03;101528.75;1741974;81;21537;-36
2021/11/10 06:57:52;;;;;;;22.52;15.08;;;;;;;0.89;58.86;101528.34;1739710;81;20947;-35
2021/11/10 07:00:19;;;;;;;20.55;12.70;;;;;;;1.01;58.74;101522.94;1738119;81;21055;-35
2021/11/10 07:02:46;;;;;;;22.93;13.62;;;;;;;1.08;58.26;101528.37;1754101;80;21021;-36
2021/11/10 07:05:13;;;;;;;21.42;13.18;;;;;;;1.14;58.19;101523.41;1775425;79;21093;-35
2021/11/10 07:07:39;;;;;;;23.50;13.62;;;;;;;1.23;58.36;101515.26;1779072;79;20943;-36
2021/11/10 07:10:08;;;;;;;22.60;13.85;;;;;;;1.34;58.37;101510.88;1779234;79;21539;-36
2021/11/10 07:12:35;;;;;;;25.10;13.05;;;;;;;1.49;57.82;101504.94;1777592;79;21070;-36
2021/11/10 07:15:01;;;;;;;21.82;12.47;;;;;;;1.63;57.79;101518.22;1786498;79;21038;-36
2021/11/10 07:17:27;;;;;;;21.07;12.53;;;;;;;1.77;57.79;101511.45;1773084;79;21136;-36
2021/11/10 07:19:54;;;;;;;18.65;11.35;;;;;;;1.92;57.59;101517.52;1779780;79;20953;-36
2021/11/10 07:22:21;;;;;;;19.52;11.20;;;;;;;2.02;57.01;101522.47;1719132;82;20965;-35
2021/11/10 07:24:47;;;;;;;19.05;10.95;;;;;;;2.08;56.75;101517.98;1756405;81;20994;-36
2021/11/10 07:27:14;;;;;;;16.77;9.85;;;;;;;2.12;56.94;101516.42;1735092;81;21604;-36
2021/11/10 07:29:42;;;;;;;15.55;8.25;;;;;;;2.15;57.13;101522.59;1713816;82;21021;-36
2021/11/10 07:32:09;;;;;;;11.08;7.55;;;;;;;1.78;56.74;101462.80;1721285;82;21536;-35
2021/11/10 07:34:36;;;;;;;13.05;7.20;;;;;;;2.12;56.96;101510.55;1729165;82;21086;-36
2021/11/10 07:37:05;;;;;;;10.95;6.03;;;;;;;2.16;57.38;101505.49;1718220;82;21049;-36
2021/11/10 07:39:32;;;;;;;8.80;6.00;;;;;;;2.17;57.19;101498.56;1715323;82;21534;-36
2021/11/10 07:41:59;;;;;;;12.90;8.88;;;;;;;2.16;56.92;101501.48;1720213;81;21187;-36
2021/11/10 07:44:27;;;;;;;14.65;6.28;;;;;;;2.16;57.14;101510.31;1721074;82;21589;-36
2021/11/10 07:47:05;;;;;;;11.45;6.05;;;;;;;2.20;57.57;101513.29;1720294;81;21540;-35
2021/11/10 07:49:23;;;;;;;9.10;5.60;;;;;;;2.25;57.86;101519.22;1699390;83;21538;-35
2021/11/10 07:51:50;;;;;;;9.03;5.72;;;;;;;2.29;57.85;101525.16;1765972;79;21061;-36
2021/11/10 07:54:17;;;;;;;12.55;6.05;;;;;;;2.31;57.39;101520.91;1750584;81;21051;-36
2021/11/10 07:56:44;;;;;;;11.03;5.80;;;;;;;2.37;57.64;101519.34;1764514;80;21456;-36
2021/11/10 07:59:10;;;;;;;10.75;6.65;;;;;;;2.49;57.48;101532.59;1761882;79;21603;-36
2021/11/10 08:01:38;;;;;;;9.28;6.25;;;;;;;2.56;56.67;101534.55;1764248;80;21002;-36
2021/11/10 08:04:04;;;;;;;9.33;6.22;;;;;;;2.65;56.44;101539.72;1780156;80;21026;-36
2021/11/10 08:06:31;;;;;;;11.12;7.42;;;;;;;2.77;56.17;101553.75;1746028;82;21157;-36
2021/11/10 08:08:59;;;;;;;10.48;6.35;;;;;;;2.89;55.83;101543.70;1769069;80;21872;-36
2021/11/10 08:11:26;;;;;;;9.65;6.25;;;;;;;3.05;55.74;101546.75;1746206;81;21048;-36
2021/11/10 08:13:53;;;;;;;11.03;6.97;;;;;;;3.20;55.17;101549.27;1780874;80;21009;-36
2021/11/10 08:16:19;;;;;;;10.63;6.20;;;;;;;3.27;55.41;101537.28;1771508;80;21041;-36
2021/11/10 08:18:46;;;;;;;8.75;5.67;;;;;;;3.37;55.04;101530.66;1777876;79;21139;-36
2021/11/10 08:21:12;;;;;;;11.15;6.17;;;;;;;3.48;54.52;101535.55;1780802;80;22101;-36
2021/11/10 08:23:39;;;;;;;13.95;6.22;;;;;;;3.65;54.10;101535.36;1779031;80;20974;-36
2021/11/10 08:26:06;;;;;;;9.65;6.70;;;;;;;3.75;53.57;101532.20;1781146;79;21618;-36
2021/11/10 08:28:33;;;;;;;9.63;6.33;;;;;;;3.84;52.99;101528.48;1761325;80;21057;-36
2021/11/10 08:31:00;;;;;;;10.45;6.25;;;;;;;3.89;52.42;101528.51;1755146;80;21100;-35
2021/11/10 08:33:28;;;;;;;11.53;5.53;;;;;;;3.98;52.03;101530.14;1751304;79;21008;-36
2021/11/10 08:35:56;;;;;;;10.23;5.20;;;;;;;4.13;51.15;101530.20;1777922;80;20970;-35
2021/11/10 08:38:23;;;;;;;6.87;4.72;;;;;;;4.22;50.30;101517.88;1779439;79;21559;-36
2021/11/10 08:40:50;;;;;;;7.08;4.65;;;;;;;4.32;50.42;101513.88;1783234;79;21093;-36
2021/11/10 08:43:18;;;;;;;7.37;4.80;;;;;;;4.49;49.44;101515.00;1782554;79;20927;-36
2021/11/10 08:45:48;;;;;;;8.48;5.40;;;;;;;4.63;49.12;101516.09;1768199;79;21042;-36
2021/11/10 08:48:15;;;;;;;7.03;4.15;;;;;;;4.77;48.59;101517.99;1770928;79;20965;-36
2021/11/10 08:50:44;;;;;;;6.67;4.58;;;;;;;4.89;47.94;101524.99;1778369;80;21842;-36
2021/11/10 08:53:14;;;;;;;4.47;2.85;;;;;;;5.00;47.85;101525.23;1761936;80;21034;-36
2021/11/10 08:55:42;;;;;;;6.37;4.25;;;;;;;5.05;46.36;101522.02;1769911;80;21059;-36
2021/11/10 08:58:08;;;;;;;6.58;4.58;;;;;;;5.04;46.22;101521.73;1738158;82;20980;-36
2021/11/10 09:00:36;;;;;;;11.00;8.50;;;;;;;5.06;46.57;101513.41;1772484;79;20958;-36
2021/11/10 09:03:02;;;;;;;7.87;6.40;;;;;;;5.16;46.89;101518.78;1733632;82;21792;-36
2021/11/10 09:05:29;;;;;;;14.55;10.00;;;;;;;5.26;46.37;101512.05;1775403;80;21100;-36
2021/11/10 09:07:55;;;;;;;8.80;6.72;;;;;;;5.35;45.43;101510.42;1771938;79;21097;-36
2021/11/10 09:10:23;;;;;;;9.65;6.20;;;;;;;5.36;45.15;101508.00;1770974;81;20941;-36
2021/11/10 09:12:50;;;;;;;6.90;4.50;;;;;;;5.37;45.99;101504.24;1771526;81;21492;-36
2021/11/10 09:15:18;;;;;;;6.28;4.47;;;;;;;5.45;45.55;101503.68;1766906;79;21024;-37
2021/11/10 09:17:44;;;;;;;6.42;4.20;;;;;;;5.47;45.70;101506.88;1774224;80;21054;-36
2021/11/10 09:20:14;;;;;;;8.78;5.15;;;;;;;5.56;45.35;101503.92;1767303;79;21165;-36
2021/11/10 09:22:42;;;;;;;6.15;3.80;;;;;;;5.64;44.85;101501.20;1766102;79;21081;-37
2021/11/10 09:25:11;;;;;;;5.85;4.00;;;;;;;5.71;45.22;101511.14;1745383;81;21603;-36
2021/11/10 09:27:39;;;;;;;6.95;3.80;;;;;;;5.84;44.71;101512.44;1766296;80;20986;-37
2021/11/10 09:30:13;;;;;;;7.60;3.90;;;;;;;5.98;44.63;101510.79;1771478;80;21568;-36
2021/11/10 09:32:40;;;;;;;5.17;3.83;;;;;;;6.13;44.35;101518.80;1764110;80;21107;-36
2021/11/10 09:35:09;;;;;;;5.47;3.40;;;;;;;6.22;43.51;101521.71;1775015;80;21516;-36
2021/11/10 09:37:36;;;;;;;25.00;13.97;;;;;;;6.26;42.60;101518.19;1780776;80;21022;-36
2021/11/10 09:40:06;;;;;;;7.35;5.17;;;;;;;6.41;42.98;101520.80;1780596;80;21001;-36
2021/11/10 09:42:35;;;;;;;20.62;16.62;;;;;;;6.65;42.93;101524.14;1781375;80;21010;-36
2021/11/10 09:45:05;;;;;;;6.42;4.42;;;;;;;6.97;41.76;101517.71;1774858;80;21115;-36
2021/11/10 09:47:33;;;;;;;4.53;3.25;;;;;;;7.20;40.21;101521.00;1780842;79;21029;-36
2021/11/10 09:50:00;;;;;;;5.35;3.10;;;;;;;7.30;39.58;101513.36;1784490;79;20929;-36
2021/11/10 09:52:27;;;;;;;7.05;3.50;;;;;;;7.42;39.46;101507.82;1785118;79;22009;-36
2021/11/10 09:54:53;;;;;;;4.95;3.40;;;;;;;7.18;38.38;101453.03;1783138;79;21093;-36
2021/11/10 09:57:20;;;;;;;4.42;3.15;;;;;;;7.62;37.92;101504.10;1793365;79;21154;-36
2021/11/10 09:59:48;;;;;;;4.37;3.40;;;;;;;7.71;37.60;101511.83;1774835;79;20985;-36
2021/11/10 10:02:15;;;;;;;4.08;2.70;;;;;;;7.80;37.46;101511.44;1776905;80;21017;-36
2021/11/10 10:04:42;;;;;;;4.33;2.98;;;;;;;7.94;37.16;101508.84;1791808;79;21009;-36
2021/11/10 10:07:11;;;;;;;4.65;2.90;;;;;;;8.14;35.93;101504.53;1773246;80;20961;-37
2021/11/10 10:09:38;;;;;;;4.05;2.80;;;;;;;8.23;35.84;101498.73;1770900;79;21133;-36
2021/11/10 10:12:07;;;;;;;4.97;3.05;;;;;;;8.18;36.05;101502.07;1778437;79;20985;-37
2021/11/10 10:14:36;;;;;;;6.05;3.12;;;;;;;8.13;35.09;101502.92;1787324;79;20960;-37
2021/11/10 10:17:07;;;;;;;5.20;2.72;;;;;;;8.10;35.84;101506.21;1795186;79;20954;-37
2021/11/10 10:19:43;;;;;;;3.85;2.90;;;;;;;8.22;34.74;101509.84;1760413;80;21005;-37
2021/11/10 10:22:17;;;;;;;4.33;2.98;;;;;;;8.36;35.46;101508.06;1773232;79;21804;-37
2021/11/10 10:24:54;;;;;;;11.53;9.20;;;;;;;8.47;35.00;101496.55;1779291;79;21767;-38
2021/11/10 10:27:32;;;;;;;5.47;3.50;;;;;;;8.35;35.05;101475.91;1788249;79;21090;-37
2021/11/10 10:30:24;;;;;;;6.78;4.72;;;;;;;8.12;34.91;101474.31;1788757;79;21238;-36
2021/11/10 10:32:58;;;;;;;12.00;8.80;;;;;;;7.86;35.65;101469.79;1781614;79;21076;-35
2021/11/10 10:35:45;;;;;;;4.58;3.00;;;;;;;7.57;35.79;101464.21;1791164;79;21354;-36
2021/11/10 10:38:16;;;;;;;6.78;3.67;;;;;;;7.33;33.97;101471.77;1789236;79;21601;-32
2021/11/10 10:40:46;;;;;;;5.00;3.55;;;;;;;7.08;34.86;101476.06;1795804;79;21024;-32
2021/11/10 10:43:13;;;;;;;8.63;4.45;;;;;;;6.89;35.44;101479.20;1768454;79;21070;-32
2021/11/10 10:45:43;;;;;;;7.10;4.25;;;;;;;6.71;35.23;101466.42;1798921;79;21026;-32
2021/11/10 10:48:19;;;;;;;5.92;4.47;;;;;;;6.55;35.68;101474.63;1774255;79;21111;-32
2021/11/10 10:50:56;;;;;;;10.50;7.87;;;;;;;6.43;35.80;101470.14;1772378;79;21607;-32
2021/11/10 10:53:47;;;;;;;5.95;4.25;;;;;;;6.33;35.91;101470.20;1772397;81;21523;-32
2021/11/10 10:56:26;;;;;;;7.53;4.03;;;;;;;6.27;36.09;101478.05;1785417;79;21553;-33
2021/11/10 10:58:58;;;;;;;6.28;3.90;;;;;;;6.21;36.35;101465.69;1797489;79;21355;-33
2021/11/10 11:01:33;;;;;;;6.33;3.70;;;;;;;6.32;36.48;101459.70;1778742;79;21101;-33
2021/11/10 11:04:15;;;;;;;6.50;4.00;;;;;;;6.65;35.63;101462.15;1798900;79;21400;-33
2021/11/10 11:06:49;;;;;;;6.87;3.50;;;;;;;7.07;35.60;101462.30;1791914;79;21550;-32
2021/11/10 11:09:30;;;;;;;6.65;4.25;;;;;;;7.52;34.12;101448.88;1772901;79;20984;-34
2021/11/10 11:12:32;;;;;;;7.50;4.62;;;;;;;7.89;33.66;101441.96;1774353;79;20943;-34
2021/11/10 11:15:10;;;;;;;7.97;6.10;;;;;;;8.21;33.77;101444.20;1772051;79;21159;-34
2021/11/10 11:17:39;;;;;;;12.23;10.60;;;;;;;8.46;33.00;101436.83;1779179;79;21634;-34
2021/11/10 11:20:30;;;;;;;7.05;5.37;;;;;;;8.51;33.05;101444.31;1776624;79;20981;-34
2021/11/10 11:22:58;;;;;;;;;;;;;;;8.49;33.16;101445.69;1784275;79;21039;-34
2021/11/10 11:25:28;;;;;;;7.28;4.20;;;;;;;8.44;33.01;101451.17;1777702;79;20192;-34
2021/11/10 11:28:10;;;;;;;8.10;4.15;;;;;;;8.27;33.17;101453.03;1782324;79;21869;-34
2021/11/10 11:30:57;;;;;;;7.30;4.03;;;;;;;8.15;33.63;101446.70;1779925;79;20961;-35
2021/11/10 11:33:28;;;;;;;6.03;3.85;;;;;;;7.99;33.94;101449.36;1766323;79;20986;-34
2021/11/10 11:35:59;;;;;;;9.78;5.05;;;;;;;7.87;34.08;101451.69;1774913;79;21062;-34